sensor_id;sensor_type;location;lat;lon;timestamp;pressure;altitude;pressure_sealevel;temperature;humidity
31285;BME280;56605;51.516;6.742;2022-07-23T00:00:04;101604.22;;;15.81;100.00
31285;BME280;56605;51.516;6.742;2022-07-23T00:02:30;101613.16;;;15.82;100.00
31285;BME280;56605;51.516;6.742;2022-07-23T00:04:55;101611.34;;;15.74;100.00
31285;BME280;56605;51.516;6.742;2022-07-23T00:07:20;101610.00;;;15.78;100.00
31285;BME280;56605;51.516;6.742;2022-07-23T00:09:45;101604.78;;;15.77;100.00
31285;BME280;56605;51.516;6.742;2022-07-23T00:12:11;101606.66;;;15.76;100.00
31285;BME280;56605;51.516;6.742;2022-07-23T00:14:36;101597.91;;;15.74;100.00
31285;BME280;56605;51.516;6.742;2022-07-23T00:17:01;101599.06;;;15.80;100.00
31285;BME280;56605;51.516;6.742;2022-07-23T00:19:27;101613.47;;;15.64;100.00
31285;BME280;56605;51.516;6.742;2022-07-23T00:21:54;101608.22;;;15.70;100.00
31285;BME280;56605;51.516;6.742;2022-07-23T00:24:19;101610.22;;;15.68;100.00
31285;BME280;56605;51.516;6.742;2022-07-23T00:26:44;101599.94;;;15.72;100.00
31285;BME280;56605;51.516;6.742;2022-07-23T00:29:10;101593.84;;;15.78;100.00
31285;BME280;56605;51.516;6.742;2022-07-23T00:31:35;101594.44;;;15.65;100.00
31285;BME280;56605;51.516;6.742;2022-07-23T00:34:00;101589.66;;;15.52;100.00
31285;BME280;56605;51.516;6.742;2022-07-23T00:36:28;101599.41;;;15.53;100.00
31285;BME280;56605;51.516;6.742;2022-07-23T00:38:53;101591.50;;;15.52;100.00
31285;BME280;56605;51.516;6.742;2022-07-23T00:41:19;101601.13;;;15.46;100.00
31285;BME280;56605;51.516;6.742;2022-07-23T00:43:45;101594.50;;;15.57;100.00
31285;BME280;56605;51.516;6.742;2022-07-23T00:46:10;101589.66;;;15.52;100.00
31285;BME280;56605;51.516;6.742;2022-07-23T00:48:36;101592.00;;;15.55;100.00
31285;BME280;56605;51.516;6.742;2022-07-23T00:51:01;101596.44;;;15.48;100.00
31285;BME280;56605;51.516;6.742;2022-07-23T00:53:26;101593.13;;;15.38;100.00
31285;BME280;56605;51.516;6.742;2022-07-23T00:55:53;101594.16;;;15.37;100.00
31285;BME280;56605;51.516;6.742;2022-07-23T00:58:19;101601.38;;;15.36;100.00
31285;BME280;56605;51.516;6.742;2022-07-23T01:00:44;101592.13;;;15.39;100.00
31285;BME280;56605;51.516;6.742;2022-07-23T01:03:10;101604.25;;;15.34;100.00
31285;BME280;56605;51.516;6.742;2022-07-23T01:05:36;101597.25;;;15.25;100.00
31285;BME280;56605;51.516;6.742;2022-07-23T01:08:01;101598.22;;;15.32;100.00
31285;BME280;56605;51.516;6.742;2022-07-23T01:10:27;101608.56;;;15.20;100.00
31285;BME280;56605;51.516;6.742;2022-07-23T01:15:27;101611.97;;;15.38;100.00
31285;BME280;56605;51.516;6.742;2022-07-23T01:17:53;101603.22;;;15.36;100.00
31285;BME280;56605;51.516;6.742;2022-07-23T01:20:18;101603.38;;;15.42;100.00
31285;BME280;56605;51.516;6.742;2022-07-23T01:22:45;101601.91;;;15.31;100.00
31285;BME280;56605;51.516;6.742;2022-07-23T01:25:10;101600.84;;;15.17;100.00
31285;BME280;56605;51.516;6.742;2022-07-23T01:27:36;101600.09;;;15.24;100.00
31285;BME280;56605;51.516;6.742;2022-07-23T01:30:03;101601.44;;;15.28;100.00
31285;BME280;56605;51.516;6.742;2022-07-23T01:32:28;101593.22;;;15.29;100.00
31285;BME280;56605;51.516;6.742;2022-07-23T01:34:54;101601.28;;;15.29;100.00
31285;BME280;56605;51.516;6.742;2022-07-23T01:37:19;101601.13;;;15.23;100.00
31285;BME280;56605;51.516;6.742;2022-07-23T01:39:44;101596.25;;;15.26;100.00
31285;BME280;56605;51.516;6.742;2022-07-23T01:42:10;101595.81;;;15.14;100.00
31285;BME280;56605;51.516;6.742;2022-07-23T01:44:35;101586.53;;;15.17;100.00
31285;BME280;56605;51.516;6.742;2022-07-23T01:47:00;101588.84;;;14.96;100.00
31285;BME280;56605;51.516;6.742;2022-07-23T01:49:25;101588.78;;;15.05;100.00
31285;BME280;56605;51.516;6.742;2022-07-23T01:51:51;101593.72;;;15.01;100.00
31285;BME280;56605;51.516;6.742;2022-07-23T01:54:29;101594.22;;;14.96;100.00
31285;BME280;56605;51.516;6.742;2022-07-23T01:56:55;101594.69;;;15.00;100.00
31285;BME280;56605;51.516;6.742;2022-07-23T01:59:22;101588.53;;;14.91;100.00
31285;BME280;56605;51.516;6.742;2022-07-23T02:01:47;101590.41;;;14.91;100.00
31285;BME280;56605;51.516;6.742;2022-07-23T02:04:12;101592.59;;;14.87;100.00
31285;BME280;56605;51.516;6.742;2022-07-23T02:06:38;101585.22;;;14.81;100.00
31285;BME280;56605;51.516;6.742;2022-07-23T02:09:03;101584.88;;;14.76;100.00
31285;BME280;56605;51.516;6.742;2022-07-23T02:11:28;101585.91;;;14.75;100.00
31285;BME280;56605;51.516;6.742;2022-07-23T02:13:54;101581.59;;;14.57;100.00
31285;BME280;56605;51.516;6.742;2022-07-23T02:16:19;101587.78;;;14.66;100.00
31285;BME280;56605;51.516;6.742;2022-07-23T02:18:44;101590.94;;;14.69;100.00
31285;BME280;56605;51.516;6.742;2022-07-23T02:21:11;101593.97;;;14.75;100.00
31285;BME280;56605;51.516;6.742;2022-07-23T02:23:36;101588.94;;;14.71;100.00
31285;BME280;56605;51.516;6.742;2022-07-23T02:26:01;101588.09;;;14.71;100.00
31285;BME280;56605;51.516;6.742;2022-07-23T02:28:27;101587.41;;;14.69;100.00
31285;BME280;56605;51.516;6.742;2022-07-23T02:30:52;101576.72;;;14.61;100.00
31285;BME280;56605;51.516;6.742;2022-07-23T02:33:17;101584.59;;;14.62;100.00
31285;BME280;56605;51.516;6.742;2022-07-23T02:35:43;101580.25;;;14.61;100.00
31285;BME280;56605;51.516;6.742;2022-07-23T02:38:08;101576.19;;;14.65;100.00
31285;BME280;56605;51.516;6.742;2022-07-23T02:40:33;101573.00;;;14.62;100.00
31285;BME280;56605;51.516;6.742;2022-07-23T02:42:58;101574.38;;;14.57;100.00
31285;BME280;56605;51.516;6.742;2022-07-23T02:45:24;101571.84;;;14.56;100.00
31285;BME280;56605;51.516;6.742;2022-07-23T02:47:49;101576.47;;;14.39;100.00
31285;BME280;56605;51.516;6.742;2022-07-23T02:50:15;101581.16;;;14.45;100.00
31285;BME280;56605;51.516;6.742;2022-07-23T02:52:40;101578.16;;;14.31;100.00
31285;BME280;56605;51.516;6.742;2022-07-23T02:55:06;101572.28;;;14.36;100.00
31285;BME280;56605;51.516;6.742;2022-07-23T02:57:31;101567.38;;;14.40;100.00
31285;BME280;56605;51.516;6.742;2022-07-23T02:59:56;101570.91;;;14.32;100.00
31285;BME280;56605;51.516;6.742;2022-07-23T03:02:22;101578.97;;;14.32;100.00
31285;BME280;56605;51.516;6.742;2022-07-23T03:04:48;101580.50;;;14.26;100.00
31285;BME280;56605;51.516;6.742;2022-07-23T03:07:15;101582.88;;;14.21;100.00
31285;BME280;56605;51.516;6.742;2022-07-23T03:09:40;101576.16;;;14.25;100.00
31285;BME280;56605;51.516;6.742;2022-07-23T03:12:06;101585.41;;;14.06;100.00
31285;BME280;56605;51.516;6.742;2022-07-23T03:14:31;101574.81;;;14.21;100.00
31285;BME280;56605;51.516;6.742;2022-07-23T03:16:57;101571.63;;;14.17;100.00
31285;BME280;56605;51.516;6.742;2022-07-23T03:19:24;101579.72;;;14.09;100.00
31285;BME280;56605;51.516;6.742;2022-07-23T03:21:50;101576.19;;;14.17;100.00
31285;BME280;56605;51.516;6.742;2022-07-23T03:24:15;101574.19;;;14.11;100.00
31285;BME280;56605;51.516;6.742;2022-07-23T03:26:42;101569.16;;;14.07;100.00
31285;BME280;56605;51.516;6.742;2022-07-23T03:29:08;101574.38;;;13.92;100.00
31285;BME280;56605;51.516;6.742;2022-07-23T03:31:33;101578.22;;;13.81;100.00
31285;BME280;56605;51.516;6.742;2022-07-23T03:33:59;101576.56;;;13.89;100.00
31285;BME280;56605;51.516;6.742;2022-07-23T03:36:24;101578.53;;;13.95;100.00
31285;BME280;56605;51.516;6.742;2022-07-23T03:38:50;101581.25;;;14.03;100.00
31285;BME280;56605;51.516;6.742;2022-07-23T03:41:16;101579.91;;;13.99;100.00
31285;BME280;56605;51.516;6.742;2022-07-23T03:43:41;101576.03;;;14.02;100.00
31285;BME280;56605;51.516;6.742;2022-07-23T03:46:06;101576.03;;;14.02;100.00
31285;BME280;56605;51.516;6.742;2022-07-23T03:48:32;101578.72;;;13.93;100.00
31285;BME280;56605;51.516;6.742;2022-07-23T03:50:57;101581.41;;;13.93;100.00
31285;BME280;56605;51.516;6.742;2022-07-23T03:53:22;101587.97;;;13.99;100.00
31285;BME280;56605;51.516;6.742;2022-07-23T03:55:48;101586.25;;;13.98;100.00
31285;BME280;56605;51.516;6.742;2022-07-23T03:58:13;101577.72;;;13.94;100.00
31285;BME280;56605;51.516;6.742;2022-07-23T04:00:38;101582.25;;;13.94;100.00
31285;BME280;56605;51.516;6.742;2022-07-23T04:03:04;101587.44;;;13.95;100.00
31285;BME280;56605;51.516;6.742;2022-07-23T04:05:29;101588.13;;;13.98;100.00
31285;BME280;56605;51.516;6.742;2022-07-23T04:07:54;101590.97;;;14.04;100.00
31285;BME280;56605;51.516;6.742;2022-07-23T04:10:20;101593.34;;;13.99;100.00
31285;BME280;56605;51.516;6.742;2022-07-23T04:12:45;101597.00;;;13.98;100.00
31285;BME280;56605;51.516;6.742;2022-07-23T04:15:10;101594.81;;;13.93;100.00
31285;BME280;56605;51.516;6.742;2022-07-23T04:17:36;101590.13;;;13.95;100.00
31285;BME280;56605;51.516;6.742;2022-07-23T04:20:02;101606.06;;;13.97;100.00
31285;BME280;56605;51.516;6.742;2022-07-23T04:22:27;101595.00;;;14.00;100.00
31285;BME280;56605;51.516;6.742;2022-07-23T04:24:53;101604.56;;;13.94;100.00
31285;BME280;56605;51.516;6.742;2022-07-23T04:27:18;101599.38;;;13.93;100.00
31285;BME280;56605;51.516;6.742;2022-07-23T04:29:43;101604.06;;;13.99;100.00
31285;BME280;56605;51.516;6.742;2022-07-23T04:32:09;101599.34;;;14.01;100.00
31285;BME280;56605;51.516;6.742;2022-07-23T04:34:34;101599.34;;;14.01;100.00
31285;BME280;56605;51.516;6.742;2022-07-23T04:36:59;101601.69;;;14.04;100.00
31285;BME280;56605;51.516;6.742;2022-07-23T04:39:25;101608.72;;;14.05;100.00
31285;BME280;56605;51.516;6.742;2022-07-23T04:41:50;101610.28;;;14.08;100.00
31285;BME280;56605;51.516;6.742;2022-07-23T04:44:15;101611.25;;;14.15;100.00
31285;BME280;56605;51.516;6.742;2022-07-23T04:46:41;101611.91;;;14.17;100.00
31285;BME280;56605;51.516;6.742;2022-07-23T04:49:06;101614.09;;;14.22;100.00
31285;BME280;56605;51.516;6.742;2022-07-23T04:51:31;101618.78;;;14.28;100.00
31285;BME280;56605;51.516;6.742;2022-07-23T04:53:57;101622.28;;;14.29;100.00
31285;BME280;56605;51.516;6.742;2022-07-23T04:56:22;101614.75;;;14.32;100.00
31285;BME280;56605;51.516;6.742;2022-07-23T04:58:47;101614.88;;;14.39;100.00
31285;BME280;56605;51.516;6.742;2022-07-23T05:01:13;101619.09;;;14.42;100.00
31285;BME280;56605;51.516;6.742;2022-07-23T05:03:38;101625.28;;;14.51;100.00
31285;BME280;56605;51.516;6.742;2022-07-23T05:06:04;101623.41;;;14.51;100.00
31285;BME280;56605;51.516;6.742;2022-07-23T05:08:29;101631.66;;;14.58;100.00
31285;BME280;56605;51.516;6.742;2022-07-23T05:10:54;101634.16;;;14.60;100.00
31285;BME280;56605;51.516;6.742;2022-07-23T05:13:20;101629.44;;;14.62;100.00
31285;BME280;56605;51.516;6.742;2022-07-23T05:15:45;101636.50;;;14.63;100.00
31285;BME280;56605;51.516;6.742;2022-07-23T05:18:11;101637.16;;;14.65;100.00
31285;BME280;56605;51.516;6.742;2022-07-23T05:20:36;101646.72;;;14.67;100.00
31285;BME280;56605;51.516;6.742;2022-07-23T05:23:02;101640.66;;;14.74;100.00
31285;BME280;56605;51.516;6.742;2022-07-23T05:25:27;101643.84;;;14.77;100.00
31285;BME280;56605;51.516;6.742;2022-07-23T05:27:52;101638.63;;;14.84;100.00
31285;BME280;56605;51.516;6.742;2022-07-23T05:30:18;101645.50;;;14.95;100.00
31285;BME280;56605;51.516;6.742;2022-07-23T05:32:43;101649.50;;;14.99;100.00
31285;BME280;56605;51.516;6.742;2022-07-23T05:35:08;101650.47;;;15.06;100.00
31285;BME280;56605;51.516;6.742;2022-07-23T05:37:34;101654.34;;;15.04;100.00
31285;BME280;56605;51.516;6.742;2022-07-23T05:40:03;101654.47;;;15.11;100.00
31285;BME280;56605;51.516;6.742;2022-07-23T05:42:31;101659.66;;;15.20;100.00
31285;BME280;56605;51.516;6.742;2022-07-23T05:44:56;101654.72;;;15.32;100.00
31285;BME280;56605;51.516;6.742;2022-07-23T05:47:22;101662.78;;;15.32;100.00
31285;BME280;56605;51.516;6.742;2022-07-23T05:49:47;101649.63;;;15.38;100.00
31285;BME280;56605;51.516;6.742;2022-07-23T05:52:12;101660.66;;;15.51;100.00
31285;BME280;56605;51.516;6.742;2022-07-23T05:54:38;101657.41;;;15.32;100.00
31285;BME280;56605;51.516;6.742;2022-07-23T05:57:03;101650.34;;;15.31;100.00
31285;BME280;56605;51.516;6.742;2022-07-23T05:59:29;101665.69;;;15.54;100.00
31285;BME280;56605;51.516;6.742;2022-07-23T06:01:55;101674.56;;;15.55;100.00
31285;BME280;56605;51.516;6.742;2022-07-23T06:04:20;101675.69;;;15.69;100.00
31285;BME280;56605;51.516;6.742;2022-07-23T06:06:46;101669.81;;;15.65;100.00
31285;BME280;56605;51.516;6.742;2022-07-23T06:09:11;101677.16;;;15.71;100.00
31285;BME280;56605;51.516;6.742;2022-07-23T06:11:39;101679.16;;;15.78;100.00
31285;BME280;56605;51.516;6.742;2022-07-23T06:14:04;101681.75;;;15.86;100.00
31285;BME280;56605;51.516;6.742;2022-07-23T06:16:29;101682.09;;;15.91;100.00
31285;BME280;56605;51.516;6.742;2022-07-23T06:18:54;101688.91;;;16.02;100.00
31285;BME280;56605;51.516;6.742;2022-07-23T06:21:20;101685.41;;;16.02;100.00
31285;BME280;56605;51.516;6.742;2022-07-23T06:23:45;101686.41;;;16.01;100.00
31285;BME280;56605;51.516;6.742;2022-07-23T06:26:10;101686.41;;;16.01;100.00
31285;BME280;56605;51.516;6.742;2022-07-23T06:28:36;101697.88;;;15.94;100.00
31285;BME280;56605;51.516;6.742;2022-07-23T06:31:01;101693.66;;;15.92;100.00
31285;BME280;56605;51.516;6.742;2022-07-23T06:33:26;101690.06;;;16.08;100.00
31285;BME280;56605;51.516;6.742;2022-07-23T06:35:53;101693.31;;;16.18;100.00
31285;BME280;56605;51.516;6.742;2022-07-23T06:38:18;101690.84;;;16.17;100.00
31285;BME280;56605;51.516;6.742;2022-07-23T06:40:44;101699.72;;;16.17;100.00
31285;BME280;56605;51.516;6.742;2022-07-23T06:43:10;101703.84;;;16.28;100.00
31285;BME280;56605;51.516;6.742;2022-07-23T06:45:35;101695.88;;;16.35;100.00
31285;BME280;56605;51.516;6.742;2022-07-23T06:48:01;101699.41;;;16.35;100.00
31285;BME280;56605;51.516;6.742;2022-07-23T06:50:27;101700.56;;;16.56;100.00
31285;BME280;56605;51.516;6.742;2022-07-23T06:52:53;101696.81;;;16.42;98.80
31285;BME280;56605;51.516;6.742;2022-07-23T06:55:18;101694.03;;;16.35;98.81
31285;BME280;56605;51.516;6.742;2022-07-23T06:57:43;101700.09;;;16.68;98.83
31285;BME280;56605;51.516;6.742;2022-07-23T07:00:09;101694.41;;;16.78;98.46
31285;BME280;56605;51.516;6.742;2022-07-23T07:02:35;101694.41;;;16.78;97.89
31285;BME280;56605;51.516;6.742;2022-07-23T07:05:00;101703.09;;;16.73;97.91
31285;BME280;56605;51.516;6.742;2022-07-23T07:07:25;101706.25;;;16.92;97.95
31285;BME280;56605;51.516;6.742;2022-07-23T07:09:51;101700.47;;;16.95;97.33
31285;BME280;56605;51.516;6.742;2022-07-23T07:12:16;101697.34;;;17.06;94.13
31285;BME280;56605;51.516;6.742;2022-07-23T07:14:41;101699.25;;;16.97;94.67
31285;BME280;56605;51.516;6.742;2022-07-23T07:17:07;101691.66;;;17.01;92.18
31285;BME280;56605;51.516;6.742;2022-07-23T07:19:32;101698.63;;;17.10;89.01
31285;BME280;56605;51.516;6.742;2022-07-23T07:21:57;101696.47;;;17.21;88.22
31285;BME280;56605;51.516;6.742;2022-07-23T07:24:22;101699.91;;;17.30;90.53
31285;BME280;56605;51.516;6.742;2022-07-23T07:26:48;101700.19;;;17.20;90.07
31285;BME280;56605;51.516;6.742;2022-07-23T07:29:13;101708.56;;;17.25;88.74
31285;BME280;56605;51.516;6.742;2022-07-23T07:31:39;101717.59;;;17.32;88.61
31285;BME280;56605;51.516;6.742;2022-07-23T07:34:04;101725.41;;;17.12;88.90
31285;BME280;56605;51.516;6.742;2022-07-23T07:36:29;101721.41;;;17.23;89.08
31285;BME280;56605;51.516;6.742;2022-07-23T07:38:54;101718.31;;;17.41;88.57
31285;BME280;56605;51.516;6.742;2022-07-23T07:41:20;101717.47;;;17.78;85.31
31285;BME280;56605;51.516;6.742;2022-07-23T07:43:49;101720.19;;;17.41;83.36
31285;BME280;56605;51.516;6.742;2022-07-23T07:46:14;101713.81;;;17.85;81.95
31285;BME280;56605;51.516;6.742;2022-07-23T07:48:40;101720.28;;;17.91;82.93
31285;BME280;56605;51.516;6.742;2022-07-23T07:51:05;101718.53;;;18.05;81.30
31285;BME280;56605;51.516;6.742;2022-07-23T07:53:30;101714.13;;;17.97;82.63
31285;BME280;56605;51.516;6.742;2022-07-23T07:55:56;101716.88;;;17.82;83.47
31285;BME280;56605;51.516;6.742;2022-07-23T07:58:21;101725.28;;;17.72;85.39
31285;BME280;56605;51.516;6.742;2022-07-23T08:00:47;101733.31;;;17.66;84.27
31285;BME280;56605;51.516;6.742;2022-07-23T08:03:12;101731.09;;;17.91;83.22
31285;BME280;56605;51.516;6.742;2022-07-23T08:05:38;101736.09;;;17.72;85.66
31285;BME280;56605;51.516;6.742;2022-07-23T08:08:03;101740.19;;;18.27;83.10
31285;BME280;56605;51.516;6.742;2022-07-23T08:10:28;101743.88;;;18.48;81.54
31285;BME280;56605;51.516;6.742;2022-07-23T08:12:55;101740.97;;;18.49;80.02
31285;BME280;56605;51.516;6.742;2022-07-23T08:15:26;101746.00;;;18.53;80.14
31285;BME280;56605;51.516;6.742;2022-07-23T08:17:51;101739.97;;;18.29;80.53
31285;BME280;56605;51.516;6.742;2022-07-23T08:20:19;101741.97;;;18.20;80.44
31285;BME280;56605;51.516;6.742;2022-07-23T08:22:51;101744.28;;;18.45;79.20
31285;BME280;56605;51.516;6.742;2022-07-23T08:25:28;101747.47;;;18.55;78.09
31285;BME280;56605;51.516;6.742;2022-07-23T08:27:55;101746.53;;;18.70;78.17
31285;BME280;56605;51.516;6.742;2022-07-23T08:30:20;101740.19;;;18.84;77.09
31285;BME280;56605;51.516;6.742;2022-07-23T08:33:00;101740.59;;;18.88;75.88
31285;BME280;56605;51.516;6.742;2022-07-23T08:35:38;101747.25;;;18.85;76.06
31285;BME280;56605;51.516;6.742;2022-07-23T08:38:09;101760.81;;;19.76;71.56
31285;BME280;56605;51.516;6.742;2022-07-23T08:40:37;101747.53;;;19.33;71.73
31285;BME280;56605;51.516;6.742;2022-07-23T08:43:07;101757.31;;;20.71;66.63
31285;BME280;56605;51.516;6.742;2022-07-23T08:45:38;101744.66;;;19.48;70.29
31285;BME280;56605;51.516;6.742;2022-07-23T08:48:07;101749.69;;;19.09;72.85
31285;BME280;56605;51.516;6.742;2022-07-23T08:50:35;101753.16;;;21.48;65.03
31285;BME280;56605;51.516;6.742;2022-07-23T08:53:02;101747.59;;;21.75;62.90
31285;BME280;56605;51.516;6.742;2022-07-23T08:55:27;101755.56;;;22.78;59.86
31285;BME280;56605;51.516;6.742;2022-07-23T08:57:53;101745.88;;;22.13;60.48
31285;BME280;56605;51.516;6.742;2022-07-23T09:00:20;101748.38;;;22.65;59.14
31285;BME280;56605;51.516;6.742;2022-07-23T09:02:46;101751.81;;;21.18;64.06
31285;BME280;56605;51.516;6.742;2022-07-23T09:05:13;101755.44;;;21.44;63.38
31285;BME280;56605;51.516;6.742;2022-07-23T09:10:56;101763.38;;;20.66;65.53
31285;BME280;56605;51.516;6.742;2022-07-23T09:18:49;101764.13;;;23.01;57.14
31285;BME280;56605;51.516;6.742;2022-07-23T09:21:18;101750.63;;;21.92;61.20
31285;BME280;56605;51.516;6.742;2022-07-23T09:28:57;101755.63;;;22.72;57.62
31285;BME280;56605;51.516;6.742;2022-07-23T09:31:23;101750.13;;;22.78;56.28
31285;BME280;56605;51.516;6.742;2022-07-23T09:33:49;101762.75;;;21.50;61.02
31285;BME280;56605;51.516;6.742;2022-07-23T09:36:15;101755.91;;;21.80;58.71
31285;BME280;56605;51.516;6.742;2022-07-23T09:38:50;101757.38;;;22.85;55.67
31285;BME280;56605;51.516;6.742;2022-07-23T09:41:16;101762.56;;;23.61;54.61
31285;BME280;56605;51.516;6.742;2022-07-23T09:43:42;101754.81;;;23.09;56.36
31285;BME280;56605;51.516;6.742;2022-07-23T09:46:24;101752.97;;;23.59;55.56
31285;BME280;56605;51.516;6.742;2022-07-23T09:48:51;101751.25;;;23.76;52.66
31285;BME280;56605;51.516;6.742;2022-07-23T09:51:17;101756.50;;;23.10;54.90
31285;BME280;56605;51.516;6.742;2022-07-23T09:53:47;101753.25;;;23.01;54.23
31285;BME280;56605;51.516;6.742;2022-07-23T09:56:13;101754.97;;;23.14;54.33
31285;BME280;56605;51.516;6.742;2022-07-23T09:58:40;101761.59;;;22.62;56.84
31285;BME280;56605;51.516;6.742;2022-07-23T10:01:12;101757.66;;;22.58;55.96
31285;BME280;56605;51.516;6.742;2022-07-23T10:03:39;101751.19;;;22.96;55.20
31285;BME280;56605;51.516;6.742;2022-07-23T10:06:05;101761.31;;;23.45;52.99
31285;BME280;56605;51.516;6.742;2022-07-23T10:08:33;101747.31;;;23.41;53.61
31285;BME280;56605;51.516;6.742;2022-07-23T10:11:00;101752.16;;;21.74;59.06
31285;BME280;56605;51.516;6.742;2022-07-23T10:13:26;101759.50;;;23.20;54.83
31285;BME280;56605;51.516;6.742;2022-07-23T10:16:10;101763.72;;;24.39;51.73
31285;BME280;56605;51.516;6.742;2022-07-23T10:18:35;101763.25;;;24.66;50.24
31285;BME280;56605;51.516;6.742;2022-07-23T10:21:05;101757.81;;;23.56;54.15
31285;BME280;56605;51.516;6.742;2022-07-23T10:23:45;101757.78;;;23.87;52.09
31285;BME280;56605;51.516;6.742;2022-07-23T10:26:34;101757.66;;;23.82;52.90
31285;BME280;56605;51.516;6.742;2022-07-23T10:34:41;101741.53;;;24.35;50.67
31285;BME280;56605;51.516;6.742;2022-07-23T10:39:39;101739.91;;;23.30;55.76
31285;BME280;56605;51.516;6.742;2022-07-23T10:42:13;101746.81;;;23.14;54.33
31285;BME280;56605;51.516;6.742;2022-07-23T10:44:44;101741.25;;;22.39;56.53
31285;BME280;56605;51.516;6.742;2022-07-23T10:47:11;101745.75;;;24.07;53.35
31285;BME280;56605;51.516;6.742;2022-07-23T10:49:45;101748.03;;;24.58;50.33
31285;BME280;56605;51.516;6.742;2022-07-23T10:54:43;101748.06;;;25.23;48.51
31285;BME280;56605;51.516;6.742;2022-07-23T10:57:10;101749.91;;;23.67;51.88
31285;BME280;56605;51.516;6.742;2022-07-23T11:02:33;101754.41;;;25.12;49.28
31285;BME280;56605;51.516;6.742;2022-07-23T11:05:01;101753.50;;;24.22;49.68
31285;BME280;56605;51.516;6.742;2022-07-23T11:07:26;101755.88;;;24.78;49.03
31285;BME280;56605;51.516;6.742;2022-07-23T11:09:53;101754.53;;;25.17;49.03
31285;BME280;56605;51.516;6.742;2022-07-23T11:15:13;101747.94;;;24.41;49.53
31285;BME280;56605;51.516;6.742;2022-07-23T11:22:37;101753.09;;;25.14;48.39
31285;BME280;56605;51.516;6.742;2022-07-23T11:25:03;101759.59;;;25.25;48.76
31285;BME280;56605;51.516;6.742;2022-07-23T11:27:39;101751.25;;;24.91;51.04
31285;BME280;56605;51.516;6.742;2022-07-23T11:30:08;101749.56;;;25.43;47.38
31285;BME280;56605;51.516;6.742;2022-07-23T11:32:36;101748.13;;;26.33;45.14
31285;BME280;56605;51.516;6.742;2022-07-23T11:35:22;101751.25;;;24.79;49.93
31285;BME280;56605;51.516;6.742;2022-07-23T11:37:48;101753.13;;;25.43;47.06
31285;BME280;56605;51.516;6.742;2022-07-23T11:40:16;101749.03;;;25.29;46.97
31285;BME280;56605;51.516;6.742;2022-07-23T11:42:58;101744.97;;;25.31;47.58
31285;BME280;56605;51.516;6.742;2022-07-23T11:45:29;101746.81;;;25.14;47.75
31285;BME280;56605;51.516;6.742;2022-07-23T11:47:55;101753.13;;;25.43;46.05
31285;BME280;56605;51.516;6.742;2022-07-23T11:50:23;101745.94;;;25.54;46.51
31285;BME280;56605;51.516;6.742;2022-07-23T11:52:49;101749.88;;;26.39;44.63
31285;BME280;56605;51.516;6.742;2022-07-23T11:55:15;101748.63;;;25.95;45.01
31285;BME280;56605;51.516;6.742;2022-07-23T11:57:42;101737.63;;;27.81;40.60
31285;BME280;56605;51.516;6.742;2022-07-23T12:00:28;101747.75;;;27.26;40.44
31285;BME280;56605;51.516;6.742;2022-07-23T12:02:59;101743.59;;;26.61;43.15
31285;BME280;56605;51.516;6.742;2022-07-23T12:05:36;101739.38;;;26.70;41.70
31285;BME280;56605;51.516;6.742;2022-07-23T12:08:04;101731.19;;;26.02;43.74
31285;BME280;56605;51.516;6.742;2022-07-23T12:10:42;101729.28;;;26.19;43.68
31285;BME280;56605;51.516;6.742;2022-07-23T12:13:09;101727.22;;;26.09;43.55
31285;BME280;56605;51.516;6.742;2022-07-23T12:15:40;101735.88;;;26.36;40.94
31285;BME280;56605;51.516;6.742;2022-07-23T12:18:08;101739.72;;;26.23;41.89
31285;BME280;56605;51.516;6.742;2022-07-23T12:20:48;101735.91;;;26.98;40.48
31285;BME280;56605;51.516;6.742;2022-07-23T12:23:16;101737.53;;;26.76;40.85
31285;BME280;56605;51.516;6.742;2022-07-23T12:25:43;101730.22;;;27.27;40.18
31285;BME280;56605;51.516;6.742;2022-07-23T12:28:14;101731.38;;;27.08;39.35
31285;BME280;56605;51.516;6.742;2022-07-23T12:30:47;101734.53;;;25.57;42.49
31285;BME280;56605;51.516;6.742;2022-07-23T12:33:35;101730.38;;;24.25;46.45
31285;BME280;56605;51.516;6.742;2022-07-23T12:36:03;101723.75;;;24.44;44.73
31285;BME280;56605;51.516;6.742;2022-07-23T12:38:38;101729.47;;;26.13;42.05
31285;BME280;56605;51.516;6.742;2022-07-23T12:41:03;101731.94;;;24.33;45.91
31285;BME280;56605;51.516;6.742;2022-07-23T12:43:36;101737.00;;;24.77;46.41
31285;BME280;56605;51.516;6.742;2022-07-23T12:46:10;101739.81;;;26.45;40.00
31285;BME280;56605;51.516;6.742;2022-07-23T12:48:50;101739.56;;;26.64;39.55
31285;BME280;56605;51.516;6.742;2022-07-23T12:51:28;101739.97;;;25.69;42.05
31285;BME280;56605;51.516;6.742;2022-07-23T12:53:56;101735.34;;;26.56;40.94
31285;BME280;56605;51.516;6.742;2022-07-23T12:56:31;101733.59;;;26.50;39.76
31285;BME280;56605;51.516;6.742;2022-07-23T12:58:58;101745.69;;;26.71;39.49
31285;BME280;56605;51.516;6.742;2022-07-23T13:01:32;101747.03;;;27.35;38.62
31285;BME280;56605;51.516;6.742;2022-07-23T13:06:25;101738.75;;;27.58;37.31
31285;BME280;56605;51.516;6.742;2022-07-23T13:08:51;101749.69;;;27.80;36.93
31285;BME280;56605;51.516;6.742;2022-07-23T13:11:17;101749.53;;;27.65;37.51
31285;BME280;56605;51.516;6.742;2022-07-23T13:13:42;101752.59;;;28.88;33.42
31285;BME280;56605;51.516;6.742;2022-07-23T13:16:08;101746.28;;;28.33;36.17
31285;BME280;56605;51.516;6.742;2022-07-23T13:18:33;101744.09;;;26.36;39.91
31285;BME280;56605;51.516;6.742;2022-07-23T13:20:59;101746.88;;;28.08;35.24
31285;BME280;56605;51.516;6.742;2022-07-23T13:23:25;101744.66;;;27.72;36.12